createdAt,value
2018-09-12T00:00:03.769Z,66.33
2018-09-12T00:01:03.776Z,66.30
2018-09-12T00:02:03.740Z,65.80
2018-09-12T00:03:03.735Z,66.00
2018-09-12T00:04:03.723Z,65.90
2018-09-12T00:05:03.712Z,65.80
2018-09-12T00:06:03.722Z,65.70
2018-09-12T00:07:03.684Z,65.36
2018-09-12T00:08:03.670Z,65.47
2018-09-12T00:09:03.662Z,64.66
2018-09-12T00:10:03.648Z,64.83
2018-09-12T00:11:03.662Z,64.86
2018-09-12T00:12:03.627Z,64.63
2018-09-12T00:13:03.613Z,64.33
2018-09-12T00:14:03.599Z,64.33
2018-09-12T00:15:03.599Z,64.53
2018-09-12T00:16:03.603Z,64.73
2018-09-12T00:17:03.568Z,64.13
2018-09-12T00:18:03.560Z,63.93
2018-09-12T00:19:03.540Z,64.13
2018-09-12T00:20:03.532Z,64.03
2018-09-12T00:21:03.547Z,64.33
2018-09-12T00:22:03.516Z,64.03
2018-09-12T00:23:03.494Z,64.33
2018-09-12T00:24:03.488Z,64.23
2018-09-12T00:25:03.475Z,64.13
2018-09-12T00:26:03.480Z,64.23
2018-09-12T00:27:03.451Z,64.83
2018-09-12T00:28:03.443Z,65.03
2018-09-12T00:29:03.431Z,65.03
2018-09-12T00:30:03.426Z,64.83
2018-09-12T00:31:03.425Z,64.63
2018-09-12T00:32:03.397Z,65.03
2018-09-12T00:33:03.382Z,65.33
2018-09-12T00:34:03.369Z,65.44
2018-09-12T00:35:03.365Z,65.44
2018-09-12T00:36:03.369Z,65.33
2018-09-12T00:37:03.348Z,65.33
2018-09-12T00:38:03.320Z,65.23
2018-09-12T00:39:03.312Z,65.23
2018-09-12T00:40:03.300Z,65.13
2018-09-12T00:41:03.308Z,65.23
2018-09-12T00:42:03.276Z,65.53
2018-09-12T00:43:03.268Z,65.67
2018-09-12T00:44:03.256Z,65.53
2018-09-12T00:45:03.241Z,65.73
2018-09-12T00:46:03.253Z,65.67
2018-09-12T00:47:03.217Z,65.77
2018-09-12T00:48:03.205Z,65.97
2018-09-12T00:49:03.197Z,66.10
2018-09-12T00:50:03.182Z,66.27
2018-09-12T00:51:03.196Z,66.17
2018-09-12T00:52:03.165Z,66.07
2018-09-12T00:53:03.147Z,66.27
2018-09-12T00:54:03.135Z,66.37
2018-09-12T00:55:03.120Z,66.30
2018-09-12T00:56:03.136Z,66.10
2018-09-12T00:57:03.109Z,66.10
2018-09-12T00:58:03.087Z,66.40
2018-09-12T00:59:03.083Z,66.50
2018-09-12T01:00:03.062Z,66.60
2018-09-12T01:01:03.077Z,66.91
2018-09-12T01:02:03.045Z,67.00
2018-09-12T01:03:03.026Z,67.00
2018-09-12T01:04:03.017Z,67.14
2018-09-12T01:05:03.003Z,67.24
2018-09-12T01:06:03.009Z,67.24
2018-09-12T01:07:02.985Z,67.44
2018-09-12T01:08:02.976Z,67.74
2018-09-12T01:09:02.958Z,67.74
2018-09-12T01:10:02.950Z,68.35
2018-09-12T01:11:02.961Z,68.35
2018-09-12T01:12:02.927Z,68.75
2018-09-12T01:13:02.911Z,68.48
2018-09-12T01:14:02.905Z,68.65
2018-09-12T01:15:02.882Z,68.88
2018-09-12T01:16:02.898Z,68.95
2018-09-12T01:17:02.859Z,69.05
2018-09-12T01:18:02.846Z,68.78
2018-09-12T01:19:02.843Z,68.98
2018-09-12T01:20:02.824Z,68.88
2018-09-12T01:21:02.840Z,69.18
2018-09-12T01:22:02.806Z,69.59
2018-09-12T01:23:02.787Z,68.68
2018-09-12T01:24:02.778Z,69.09
2018-09-12T01:25:02.763Z,69.32
2018-09-12T01:26:02.776Z,69.29
2018-09-12T01:27:02.739Z,69.99
2018-09-12T01:28:02.735Z,69.29
2018-09-12T01:29:02.720Z,70.02
2018-09-12T01:30:02.712Z,69.99
2018-09-12T01:31:02.725Z,69.92
2018-09-12T01:32:02.682Z,70.02
2018-09-12T01:33:02.673Z,69.32
2018-09-12T01:34:02.666Z,69.62
2018-09-12T01:35:02.643Z,70.02
2018-09-12T01:36:02.665Z,70.22
2018-09-12T01:37:02.622Z,70.56
2018-09-12T01:38:02.608Z,70.22
2018-09-12T01:39:02.608Z,70.15
2018-09-12T01:40:02.589Z,69.75
2018-09-12T01:41:02.602Z,70.86
2018-09-12T01:42:02.570Z,71.06
2018-09-12T01:43:02.557Z,71.06
2018-09-12T01:44:02.545Z,71.26
2018-09-12T01:45:02.530Z,71.17
2018-09-12T01:46:02.544Z,70.97
2018-09-12T01:47:02.501Z,70.97
2018-09-12T01:48:02.494Z,71.57
2018-09-12T01:49:02.480Z,71.50
2018-09-12T01:50:02.471Z,71.00
2018-09-12T01:51:02.477Z,71.50
2018-09-12T01:52:02.444Z,72.20
2018-09-12T01:53:02.436Z,71.50
2018-09-12T01:54:02.419Z,71.80
2018-09-12T01:55:02.411Z,71.91
2018-09-12T01:56:02.430Z,71.70
2018-09-12T01:57:02.381Z,72.81
2018-09-12T01:58:02.374Z,72.71
2018-09-12T01:59:02.365Z,72.71
2018-09-12T02:00:02.349Z,72.41
2018-09-12T02:01:02.375Z,72.61
2018-09-12T02:02:02.330Z,72.71
2018-09-12T02:03:02.314Z,72.44
2018-09-12T02:04:02.305Z,72.61
2018-09-12T02:05:02.295Z,72.91
2018-09-12T02:06:02.276Z,72.54
2018-09-12T02:07:02.291Z,73.15
2018-09-12T02:08:02.254Z,72.54
2018-09-12T02:09:02.247Z,72.51
2018-09-12T02:10:02.238Z,72.61
2018-09-12T02:11:02.218Z,72.51
2018-09-12T02:12:02.229Z,72.44
2018-09-12T02:13:02.203Z,72.54
2018-09-12T02:14:02.188Z,72.95
2018-09-12T02:15:02.171Z,72.61
2018-09-12T02:16:02.162Z,72.71
2018-09-12T02:17:02.172Z,72.81
2018-09-12T02:18:02.134Z,72.51
2018-09-12T02:19:02.131Z,72.41
2018-09-12T02:20:02.117Z,72.71
2018-09-12T02:21:02.103Z,72.95
2018-09-12T02:22:02.116Z,73.15
2018-09-12T02:23:02.082Z,73.11
2018-09-12T02:24:02.325Z,72.91
2018-09-12T02:25:02.061Z,72.95
2018-09-12T02:26:02.039Z,73.45
2018-09-12T02:27:02.059Z,73.22
2018-09-12T02:28:02.014Z,73.42
2018-09-12T02:29:02.013Z,72.91
2018-09-12T02:30:01.998Z,73.35
2018-09-12T02:31:01.982Z,73.72
2018-09-12T02:32:02.002Z,73.45
2018-09-12T02:33:01.974Z,73.32
2018-09-12T02:34:01.945Z,73.42
2018-09-12T02:35:01.943Z,73.62
2018-09-12T02:36:01.948Z,73.72
2018-09-12T02:37:01.942Z,74.05
2018-09-12T02:38:01.904Z,73.85
2018-09-12T02:39:01.889Z,74.26
2018-09-12T02:40:01.877Z,74.26
2018-09-12T02:41:01.871Z,74.87
2018-09-12T02:42:01.890Z,75.10
2018-09-12T02:43:01.840Z,75.00
2018-09-12T02:44:01.836Z,74.96
2018-09-12T02:45:01.816Z,74.96
2018-09-12T02:46:01.808Z,75.00
2018-09-12T02:47:01.799Z,74.76
2018-09-12T02:48:01.814Z,74.96
2018-09-12T02:49:01.772Z,74.96
2018-09-12T02:50:01.758Z,74.76
2018-09-12T02:51:01.755Z,74.96
2018-09-12T02:52:01.740Z,74.96
2018-09-12T02:53:01.750Z,74.36
2018-09-12T02:54:01.718Z,75.31
2018-09-12T02:55:01.718Z,75.51
2018-09-12T02:56:01.688Z,75.40
2018-09-12T02:57:01.684Z,75.40
2018-09-12T02:58:01.694Z,75.27
2018-09-12T02:59:01.658Z,75.40
2018-09-12T03:00:01.642Z,75.31
2018-09-12T03:01:01.638Z,75.31
2018-09-12T03:02:01.620Z,75.31
2018-09-12T03:03:01.637Z,75.20
2018-09-12T03:04:01.595Z,75.71
2018-09-12T03:05:01.589Z,75.51
2018-09-12T03:06:01.573Z,75.84
2018-09-12T03:07:01.564Z,75.95
2018-09-12T03:08:01.619Z,76.15
2018-09-12T03:09:01.542Z,76.15
2018-09-12T03:10:01.527Z,76.15
2018-09-12T03:11:01.520Z,75.95
2018-09-12T03:12:01.509Z,76.55
2018-09-12T03:13:01.511Z,76.55
2018-09-12T03:14:01.477Z,76.75
2018-09-12T03:15:01.486Z,76.79
2018-09-12T03:16:01.455Z,76.55
2018-09-12T03:17:01.446Z,76.45
2018-09-12T03:18:01.461Z,76.65
2018-09-12T03:19:01.420Z,76.65
2018-09-12T03:20:01.412Z,76.69
2018-09-12T03:21:01.579Z,76.99
2018-09-12T03:22:01.381Z,76.59
2018-09-12T03:23:01.407Z,77.19
2018-09-12T03:24:01.361Z,77.94
2018-09-12T03:25:01.352Z,77.33
2018-09-12T03:26:01.343Z,77.94
2018-09-12T03:27:01.330Z,77.43
2018-09-12T03:28:01.318Z,77.43
2018-09-12T03:29:01.333Z,77.50
2018-09-12T03:30:01.289Z,78.00
2018-09-12T03:31:01.286Z,77.80
2018-09-12T03:32:01.266Z,77.70
2018-09-12T03:33:01.263Z,76.79
2018-09-12T03:34:01.248Z,76.79
2018-09-12T03:35:01.257Z,78.14
2018-09-12T03:36:01.229Z,78.00
2018-09-12T03:37:01.208Z,77.94
2018-09-12T03:38:01.199Z,78.04
2018-09-12T03:39:01.193Z,77.03
2018-09-12T03:40:01.201Z,78.14
2018-09-12T03:41:01.164Z,77.33
2018-09-12T03:42:01.152Z,77.64
2018-09-12T03:43:01.148Z,77.43
2018-09-12T03:44:01.135Z,77.94
2018-09-12T03:45:01.137Z,77.64
2018-09-12T03:46:01.110Z,77.03
2018-09-12T03:47:01.097Z,77.43
2018-09-12T03:48:01.160Z,77.64
2018-09-12T03:49:01.068Z,77.43
2018-09-12T03:50:01.082Z,77.94
2018-09-12T03:51:01.052Z,77.64
2018-09-12T03:52:01.041Z,77.43
2018-09-12T03:53:01.024Z,77.43
2018-09-12T03:54:01.008Z,77.43
2018-09-12T03:55:01.032Z,77.53
2018-09-12T03:56:00.992Z,77.43
2018-09-12T03:57:00.983Z,77.33
2018-09-12T03:58:00.970Z,77.26
2018-09-12T03:59:00.960Z,77.43
2018-09-12T04:00:00.961Z,77.57
2018-09-12T04:01:00.940Z,77.64
2018-09-12T04:02:00.918Z,77.23
2018-09-12T04:03:00.918Z,77.53
2018-09-12T04:04:00.895Z,77.37
2018-09-12T04:05:00.915Z,77.53
2018-09-12T04:06:00.871Z,77.43
2018-09-12T04:07:00.869Z,77.23
2018-09-12T04:08:00.851Z,77.43
2018-09-12T04:09:00.843Z,77.67
2018-09-12T04:10:00.856Z,77.84
2018-09-12T04:11:00.820Z,77.47
2018-09-12T04:12:00.802Z,77.37
2018-09-12T04:13:00.792Z,77.57
2018-09-12T04:14:00.784Z,77.47
2018-09-12T04:15:00.806Z,77.77
2018-09-12T04:16:00.757Z,77.97
2018-09-12T04:17:00.864Z,77.77
2018-09-12T04:18:00.734Z,78.17
2018-09-12T04:19:00.724Z,77.47
2018-09-12T04:20:00.720Z,77.57
2018-09-12T04:21:00.717Z,77.97
2018-09-12T04:22:00.687Z,77.67
2018-09-12T04:23:00.681Z,77.47
2018-09-12T04:24:00.661Z,77.57
2018-09-12T04:25:00.659Z,78.28
2018-09-12T04:26:00.665Z,79.43
2018-09-12T04:27:00.629Z,79.29
2018-09-12T04:28:00.623Z,79.19
2018-09-12T04:29:00.609Z,79.19
2018-09-12T04:30:00.600Z,78.72
2018-09-12T04:31:00.606Z,78.82
2018-09-12T04:32:00.574Z,78.68
2018-09-12T04:33:00.559Z,79.22
2018-09-12T04:34:00.542Z,78.92
2018-09-12T04:35:00.539Z,79.53
2018-09-12T04:36:00.553Z,79.63
2018-09-12T04:37:00.511Z,79.83
2018-09-12T04:38:00.496Z,79.53
2018-09-12T04:39:00.493Z,79.13
2018-09-12T04:40:00.476Z,79.53
2018-09-12T04:41:00.488Z,79.33
2018-09-12T04:42:00.459Z,80.34
2018-09-12T04:43:00.436Z,80.18
2018-09-12T04:44:00.434Z,80.64
2018-09-12T04:45:00.419Z,80.38
2018-09-12T04:46:00.431Z,80.94
2018-09-12T04:47:00.403Z,80.44
2018-09-12T04:48:00.389Z,80.94
2018-09-12T04:49:00.375Z,80.13
2018-09-12T04:50:00.365Z,80.64
2018-09-12T04:51:00.366Z,80.54
2018-09-12T04:52:00.335Z,80.58
2018-09-12T04:53:00.326Z,80.47
2018-09-12T04:54:00.310Z,80.44
2018-09-12T04:55:00.303Z,80.64
2018-09-12T04:56:00.309Z,80.68
2018-09-12T04:57:00.281Z,80.38
2018-09-12T04:58:00.261Z,80.78
2018-09-12T04:59:00.258Z,80.58
2018-09-12T05:00:00.246Z,80.11
2018-09-12T05:01:00.250Z,80.72
2018-09-12T05:02:00.216Z,81.12
2018-09-12T05:03:00.216Z,81.73
2018-09-12T05:04:00.196Z,81.93
2018-09-12T05:05:00.188Z,81.32
2018-09-12T05:06:00.188Z,82.14
2018-09-12T05:07:00.169Z,81.79
2018-09-12T05:08:00.144Z,81.32
2018-09-12T05:09:00.140Z,81.79
2018-09-12T05:10:00.120Z,80.98
2018-09-12T05:11:00.138Z,80.98
2018-09-12T05:12:00.101Z,80.78
2018-09-12T05:13:00.088Z,80.98
2018-09-12T05:14:00.073Z,81.29
2018-09-12T05:15:00.065Z,81.23
2018-09-12T05:16:00.167Z,81.09
2018-09-12T05:17:00.042Z,81.43
2018-09-12T05:18:00.024Z,81.73
2018-09-12T05:19:00.014Z,81.93
2018-09-12T05:20:00.006Z,81.83
2018-09-12T05:21:00.009Z,81.93
2018-09-12T05:21:59.995Z,81.93
2018-09-12T05:22:59.962Z,82.14
2018-09-12T05:23:59.961Z,82.58
2018-09-12T05:24:59.940Z,82.54
2018-09-12T05:25:59.953Z,82.78
2018-09-12T05:26:59.921Z,83.09
2018-09-12T05:27:59.912Z,83.39
2018-09-12T05:28:59.902Z,83.69
2018-09-12T05:29:59.886Z,83.29
2018-09-12T05:30:59.895Z,83.29
2018-09-12T05:31:59.874Z,83.49
2018-09-12T05:33:00.016Z,84.27
2018-09-12T05:33:59.839Z,84.41
2018-09-12T05:34:59.823Z,84.10
2018-09-12T05:35:59.931Z,84.20
2018-09-12T05:36:59.801Z,84.00
2018-09-12T05:37:59.793Z,84.00
2018-09-12T05:38:59.777Z,84.10
2018-09-12T05:39:59.769Z,83.69
2018-09-12T05:40:59.753Z,83.59
2018-09-12T05:41:59.761Z,84.30
2018-09-12T05:42:59.736Z,84.20
2018-09-12T05:43:59.718Z,84.10
2018-09-12T05:44:59.711Z,83.80
2018-09-12T05:45:59.704Z,83.86
2018-09-12T05:46:59.705Z,83.76
2018-09-12T05:47:59.725Z,83.25
2018-09-12T05:48:59.669Z,83.15
2018-09-12T05:49:59.688Z,83.15
2018-09-12T05:50:59.734Z,83.65
2018-09-12T05:51:59.653Z,83.65
2018-09-12T05:52:59.610Z,83.35
2018-09-12T05:53:59.605Z,83.25
2018-09-12T05:54:59.595Z,83.25
2018-09-12T05:55:59.578Z,83.04
2018-09-12T05:56:59.593Z,83.04
2018-09-12T05:57:59.555Z,82.84
2018-09-12T05:58:59.547Z,82.81
2018-09-12T05:59:59.532Z,82.81
2018-09-12T06:00:59.598Z,82.10
2018-09-12T06:01:59.529Z,81.90
2018-09-12T06:02:59.507Z,81.49
2018-09-12T06:03:59.486Z,81.59
2018-09-12T06:04:59.477Z,81.69
2018-09-12T06:05:59.461Z,81.39
2018-09-12T06:06:59.581Z,81.65
2018-09-12T06:07:59.436Z,81.29
2018-09-12T06:08:59.427Z,82.10
2018-09-12T06:09:59.413Z,81.96
2018-09-12T06:10:59.412Z,82.10
2018-09-12T06:11:59.411Z,81.99
2018-09-12T06:12:59.386Z,81.69
2018-09-12T06:13:59.438Z,81.15
2018-09-12T06:14:59.366Z,81.45
2018-09-12T06:15:59.346Z,81.35
2018-09-12T06:16:59.360Z,81.25
2018-09-12T06:17:59.323Z,81.45
2018-09-12T06:18:59.314Z,81.35
2018-09-12T06:19:59.306Z,80.84
2018-09-12T06:20:59.287Z,80.74
2018-09-12T06:21:59.299Z,81.11
2018-09-12T06:22:59.268Z,81.11
2018-09-12T06:23:59.256Z,80.66
2018-09-12T06:24:59.243Z,79.86
2018-09-12T06:25:59.226Z,79.66
2018-09-12T06:26:59.245Z,79.35
2018-09-12T06:27:59.209Z,77.70
2018-09-12T06:28:59.193Z,77.66
2018-09-12T06:29:59.178Z,77.15
2018-09-12T06:30:59.175Z,75.10
2018-09-12T06:31:59.185Z,75.27
2018-09-12T06:32:59.142Z,74.36
2018-09-12T06:33:59.137Z,75.43
2018-09-12T06:34:59.125Z,75.43
2018-09-12T06:35:59.112Z,73.79
2018-09-12T06:36:59.137Z,73.25
2018-09-12T06:37:59.084Z,73.35
2018-09-12T06:38:59.085Z,72.71
2018-09-12T06:39:59.065Z,72.71
2018-09-12T06:40:59.058Z,72.51
2018-09-12T06:41:59.039Z,71.36
2018-09-12T06:42:59.075Z,69.85
2018-09-12T06:43:59.016Z,70.03
2018-09-12T06:44:59.008Z,69.82
2018-09-12T06:45:58.994Z,70.53
2018-09-12T06:46:58.984Z,69.29
2018-09-12T06:47:58.988Z,69.18
2018-09-12T06:48:58.967Z,69.35
2018-09-12T06:49:58.943Z,68.15
2018-09-12T06:50:58.941Z,68.62
2018-09-12T06:51:58.927Z,67.61
2018-09-12T06:52:58.937Z,67.18
2018-09-12T06:53:58.963Z,67.18
2018-09-12T06:54:58.892Z,65.57
2018-09-12T06:55:58.886Z,63.93
2018-09-12T06:56:58.869Z,66.05
2018-09-12T06:57:58.879Z,64.61
2018-09-12T06:58:58.848Z,63.20
2018-09-12T06:59:58.829Z,64.61
2018-09-12T07:00:58.847Z,62.77
2018-09-12T07:01:58.810Z,63.14
2018-09-12T07:02:58.818Z,63.95
2018-09-12T07:03:58.792Z,62.74
2018-09-12T07:04:58.774Z,60.14
2018-09-12T07:05:58.760Z,63.64
2018-09-12T07:06:58.751Z,60.84
2018-09-12T07:07:58.756Z,63.14
2018-09-12T07:08:58.730Z,63.75
2018-09-12T07:09:58.719Z,62.04
2018-09-12T07:10:58.705Z,61.84
2018-09-12T07:11:58.694Z,65.05
2018-09-12T07:12:58.697Z,65.08
2018-09-12T07:13:58.666Z,64.37
2018-09-12T07:14:58.655Z,63.45
2018-09-12T07:15:58.642Z,63.87
2018-09-12T07:16:58.631Z,65.38
2018-09-12T07:17:58.671Z,66.08
2018-09-12T07:18:58.605Z,66.18
2018-09-12T07:19:58.596Z,65.21
2018-09-12T07:20:58.582Z,65.68
2018-09-12T07:21:58.566Z,63.67
2018-09-12T07:22:58.564Z,66.38
2018-09-12T07:23:58.566Z,66.18
2018-09-12T07:24:58.537Z,63.45
2018-09-12T07:25:58.527Z,66.08
2018-09-12T07:26:58.508Z,66.58
2018-09-12T07:27:58.495Z,66.28
2018-09-12T07:28:58.518Z,66.58
2018-09-12T07:29:58.478Z,66.18
2018-09-12T07:30:58.463Z,66.18
2018-09-12T07:31:58.455Z,63.24
2018-09-12T07:32:58.441Z,65.88
2018-09-12T07:33:58.448Z,65.85
2018-09-12T07:34:58.424Z,62.01
2018-09-12T07:35:58.417Z,63.01
2018-09-12T07:36:58.389Z,60.11
2018-09-12T07:37:58.382Z,64.59
2018-09-12T07:38:58.397Z,60.58
2018-09-12T07:39:58.353Z,61.45
2018-09-12T07:40:58.367Z,61.65
2018-09-12T07:41:58.337Z,61.92
2018-09-12T07:42:58.321Z,60.52
2018-09-12T07:43:58.336Z,59.99
2018-09-12T07:44:58.303Z,58.56
2018-09-12T07:45:58.314Z,57.87
2018-09-12T07:46:58.272Z,57.84
2018-09-12T07:47:58.264Z,57.84
2018-09-12T07:48:58.296Z,57.54
2018-09-12T07:49:58.242Z,60.31
2018-09-12T07:50:58.236Z,60.74
2018-09-12T07:51:58.218Z,60.93
2018-09-12T07:52:58.214Z,60.91
2018-09-12T07:53:58.222Z,58.91
2018-09-12T07:54:58.191Z,58.48
2018-09-12T07:55:58.260Z,59.38
2018-09-12T07:56:58.162Z,58.98
2018-09-12T07:57:58.151Z,57.46
2018-09-12T07:58:58.137Z,58.06
2018-09-12T07:59:58.195Z,58.23
2018-09-12T08:00:58.122Z,57.53
2018-09-12T08:01:58.108Z,55.73
2018-09-12T08:02:58.094Z,56.90
2018-09-12T08:03:58.082Z,55.21
2018-09-12T08:04:58.167Z,54.19
2018-09-12T08:05:58.066Z,56.55
2018-09-12T08:06:58.048Z,53.14
2018-09-12T08:07:58.042Z,53.14
2018-09-12T08:08:58.027Z,53.14
2018-09-12T08:09:58.036Z,52.14
2018-09-12T08:10:58.006Z,52.34
2018-09-12T08:11:57.994Z,52.54
2018-09-12T08:12:57.980Z,54.86
2018-09-12T08:13:57.971Z,52.86
2018-09-12T08:14:57.986Z,53.29
2018-09-12T08:15:57.945Z,54.49
2018-09-12T08:16:57.970Z,56.77
2018-09-12T08:17:57.923Z,57.50
2018-09-12T08:18:57.934Z,58.29
2018-09-12T08:19:57.922Z,56.81
2018-09-12T08:20:57.898Z,56.10
2018-09-12T08:21:57.884Z,55.31
2018-09-12T08:22:57.863Z,56.40
2018-09-12T08:23:57.860Z,57.00
2018-09-12T08:24:57.871Z,55.80
2018-09-12T08:25:57.826Z,55.80
2018-09-12T08:26:57.825Z,55.48
2018-09-12T08:27:57.808Z,57.67
2018-09-12T08:28:57.820Z,55.28
2018-09-12T08:29:57.783Z,54.88
2018-09-12T08:30:57.792Z,57.60
2018-09-12T08:31:57.756Z,57.30
2018-09-12T08:32:57.748Z,55.71
2018-09-12T08:33:57.735Z,57.20
2018-09-12T08:34:57.731Z,57.97
2018-09-12T08:35:57.739Z,54.26
2018-09-12T08:36:57.713Z,55.85
2018-09-12T08:37:57.688Z,56.42
2018-09-12T08:38:57.689Z,55.53
2018-09-12T08:39:57.668Z,56.99
2018-09-12T08:40:57.682Z,55.70
2018-09-12T08:41:57.646Z,56.82
2018-09-12T08:42:57.637Z,57.29
2018-09-12T08:43:57.619Z,55.73
2018-09-12T08:44:57.620Z,56.92
2018-09-12T08:45:57.620Z,57.22
2018-09-12T08:46:57.589Z,56.82
2018-09-12T08:47:57.578Z,57.82
2018-09-12T08:48:57.564Z,57.29
2018-09-12T08:49:57.555Z,57.71
2018-09-12T08:50:57.570Z,58.31
2018-09-12T08:51:57.533Z,57.59
2018-09-12T08:52:57.593Z,56.57
2018-09-12T08:53:57.511Z,56.67
2018-09-12T08:54:57.502Z,56.61
2018-09-12T08:55:57.506Z,55.52
2018-09-12T08:56:57.482Z,55.19
2018-09-12T08:57:57.462Z,53.48
2018-09-12T08:58:57.460Z,53.96
2018-09-12T08:59:57.449Z,54.13
2018-09-12T09:00:57.450Z,53.63
2018-09-12T09:01:57.421Z,53.23
2018-09-12T09:02:57.407Z,53.26
2018-09-12T09:03:57.413Z,53.13
2018-09-12T09:04:57.388Z,52.12
2018-09-12T09:05:57.404Z,51.03
2018-09-12T09:06:57.368Z,52.59
2018-09-12T09:07:57.358Z,51.10
2018-09-12T09:08:57.345Z,51.28
2018-09-12T09:09:57.331Z,49.19
2018-09-12T09:10:57.350Z,50.56
2018-09-12T09:11:57.329Z,49.25
2018-09-12T09:12:57.303Z,48.73
2018-09-12T09:13:57.297Z,47.54
2018-09-12T09:14:57.277Z,48.02
2018-09-12T09:15:57.293Z,46.83
2018-09-12T09:16:57.258Z,48.19
2018-09-12T09:17:57.244Z,46.01
2018-09-12T09:18:57.235Z,45.23
2018-09-12T09:19:57.225Z,45.70
2018-09-12T09:20:57.233Z,47.08
2018-09-12T09:21:57.210Z,48.28
2018-09-12T09:22:57.191Z,46.78
2018-09-12T09:23:57.188Z,45.50
2018-09-12T09:24:57.168Z,45.28
2018-09-12T09:25:57.181Z,44.98
2018-09-12T09:26:57.150Z,45.93
2018-09-12T09:27:57.134Z,46.25
2018-09-12T09:28:57.132Z,46.66
2018-09-12T09:29:57.118Z,47.00
2018-09-12T09:30:57.135Z,48.53
2018-09-12T09:31:57.100Z,49.35
2018-09-12T09:32:57.085Z,49.52
2018-09-12T09:33:57.077Z,48.80
2018-09-12T09:34:57.139Z,47.20
2018-09-12T09:35:57.046Z,46.96
2018-09-12T09:36:57.065Z,45.95
2018-09-12T09:37:57.030Z,45.43
2018-09-12T09:38:57.017Z,44.23
2018-09-12T09:39:57.002Z,45.39
2018-09-12T09:40:56.997Z,44.98
2018-09-12T09:41:57.005Z,43.60
2018-09-12T09:42:56.980Z,43.30
2018-09-12T09:43:57.016Z,44.53
2018-09-12T09:44:56.955Z,44.72
2018-09-12T09:45:56.941Z,44.53
2018-09-12T09:46:56.956Z,44.43
2018-09-12T09:47:57.043Z,45.31
2018-09-12T09:48:56.920Z,44.45
2018-09-12T09:49:56.899Z,46.12
2018-09-12T09:50:56.892Z,45.02
2018-09-12T09:51:56.903Z,44.40
2018-09-12T09:52:56.875Z,43.93
2018-09-12T09:53:56.860Z,46.10
2018-09-12T09:54:56.891Z,45.39
2018-09-12T09:55:56.839Z,44.78
2018-09-12T09:56:56.854Z,43.77
2018-09-12T09:57:56.819Z,43.16
2018-09-12T09:58:56.811Z,42.33
2018-09-12T09:59:56.792Z,42.63
2018-09-12T10:00:56.792Z,41.11
2018-09-12T10:01:56.792Z,42.41
2018-09-12T10:02:56.771Z,41.02
2018-09-12T10:03:56.751Z,41.02
2018-09-12T10:04:56.744Z,41.41
2018-09-12T10:05:56.756Z,40.35
2018-09-12T10:06:56.743Z,40.92
2018-09-12T10:07:56.716Z,41.33
2018-09-12T10:08:56.714Z,41.90
2018-09-12T10:09:56.686Z,41.68
2018-09-12T10:10:56.686Z,40.01
2018-09-12T10:11:56.765Z,39.82
2018-09-12T10:12:56.658Z,40.31
2018-09-12T10:13:56.645Z,39.64
2018-09-12T10:14:56.644Z,40.76
2018-09-12T10:15:56.626Z,42.25
2018-09-12T10:16:56.642Z,43.36
2018-09-12T10:17:56.613Z,41.96
2018-09-12T10:18:56.593Z,41.84
2018-09-12T10:19:56.591Z,39.94
2018-09-12T10:20:56.575Z,40.31
2018-09-12T10:21:56.591Z,40.01
2018-09-12T10:22:56.565Z,40.53
2018-09-12T10:23:56.546Z,40.62
2018-09-12T10:24:56.532Z,39.45
2018-09-12T10:25:56.523Z,41.41
2018-09-12T10:26:56.539Z,39.92
2018-09-12T10:27:56.509Z,39.53
2018-09-12T10:28:56.490Z,39.90
2018-09-12T10:29:56.482Z,39.31
2018-09-12T10:30:56.474Z,39.27
2018-09-12T10:31:56.489Z,40.95
2018-09-12T10:32:56.460Z,38.10
2018-09-12T10:33:56.445Z,39.45
2018-09-12T10:34:56.432Z,38.08
2018-09-12T10:35:56.418Z,37.27
2018-09-12T10:36:56.417Z,37.77
2018-09-12T10:37:56.429Z,37.37
2018-09-12T10:38:56.392Z,37.47
2018-09-12T10:39:56.386Z,37.69
2018-09-12T10:40:56.392Z,37.51
2018-09-12T10:41:56.358Z,37.29
2018-09-12T10:42:56.374Z,37.71
2018-09-12T10:43:56.347Z,38.29
2018-09-12T10:44:56.332Z,38.49
2018-09-12T10:45:56.324Z,37.49
2018-09-12T10:46:56.303Z,37.39
2018-09-12T10:47:56.316Z,37.67
2018-09-12T10:48:56.290Z,38.26
2018-09-12T10:49:56.274Z,38.96
2018-09-12T10:50:56.262Z,37.90
2018-09-12T10:51:56.252Z,38.31
2018-09-12T10:52:56.265Z,40.29
2018-09-12T10:53:56.235Z,39.80
2018-09-12T10:54:56.217Z,39.82
2018-09-12T10:55:56.213Z,39.74
2018-09-12T10:56:56.199Z,39.84
2018-09-12T10:57:56.207Z,41.03
2018-09-12T10:58:56.187Z,41.08
2018-09-12T10:59:56.169Z,42.30
2018-09-12T11:00:56.162Z,42.08
2018-09-12T11:01:56.140Z,43.46
2018-09-12T11:02:56.162Z,42.18
2018-09-12T11:03:56.123Z,42.06
2018-09-12T11:04:56.114Z,41.16
2018-09-12T11:05:56.100Z,40.96
2018-09-12T11:06:56.093Z,41.82
2018-09-12T11:07:56.103Z,41.43
2018-09-12T11:08:56.068Z,41.09
2018-09-12T11:09:56.054Z,40.95
2018-09-12T11:10:56.053Z,38.12
2018-09-12T11:11:56.043Z,38.39
2018-09-12T11:12:56.052Z,37.90
2018-09-12T11:13:56.018Z,37.90
2018-09-12T11:14:56.009Z,37.98
2018-09-12T11:15:55.997Z,37.77
2018-09-12T11:16:55.988Z,36.87
2018-09-12T11:17:55.981Z,36.26
2018-09-12T11:18:55.983Z,36.24
2018-09-12T11:19:55.950Z,35.35
2018-09-12T11:20:55.949Z,35.53
2018-09-12T11:21:55.935Z,35.63
2018-09-12T11:22:55.922Z,35.51
2018-09-12T11:23:55.949Z,34.14
2018-09-12T11:24:55.908Z,35.02
2018-09-12T11:25:55.889Z,35.78
2018-09-12T11:26:55.885Z,35.10
2018-09-12T11:27:55.868Z,34.01
2018-09-12T11:28:55.890Z,34.61
2018-09-12T11:29:55.848Z,35.63
2018-09-12T11:30:55.848Z,35.27
2018-09-12T11:31:55.828Z,36.73
2018-09-12T11:32:55.828Z,36.24
2018-09-12T11:33:55.836Z,35.94
2018-09-12T11:34:55.801Z,34.45
2018-09-12T11:35:55.790Z,35.53
2018-09-12T11:36:55.784Z,36.31
2018-09-12T11:37:55.777Z,35.14
2018-09-12T11:38:55.779Z,34.32
2018-09-12T11:39:55.805Z,35.00
2018-09-12T11:40:55.745Z,35.61
2018-09-12T11:41:55.732Z,33.46
2018-09-12T11:42:55.720Z,35.80
2018-09-12T11:43:55.739Z,35.24
2018-09-12T11:44:55.697Z,35.12
2018-09-12T11:45:55.689Z,34.14
2018-09-12T11:46:55.683Z,33.87
2018-09-12T11:47:55.669Z,35.06
2018-09-12T11:48:55.732Z,36.24
2018-09-12T11:49:55.650Z,35.87
2018-09-12T11:50:55.641Z,35.91
2018-09-12T11:51:55.631Z,38.08
2018-09-12T11:52:55.618Z,36.22
2018-09-12T11:53:55.635Z,36.61
2018-09-12T11:54:55.603Z,36.69
2018-09-12T11:55:55.585Z,38.26
2018-09-12T11:56:55.577Z,37.39
2018-09-12T11:57:55.569Z,37.41
2018-09-12T11:58:55.548Z,36.45
2018-09-12T11:59:55.568Z,38.43
2018-09-12T12:00:55.531Z,39.29
2018-09-12T12:01:55.518Z,38.60
2018-09-12T12:02:55.518Z,38.33
2018-09-12T12:03:55.498Z,39.61
2018-09-12T12:04:55.521Z,38.23
2018-09-12T12:05:55.489Z,38.70
2018-09-12T12:06:55.476Z,39.29
2018-09-12T12:07:55.464Z,39.47
2018-09-12T12:08:55.445Z,37.71
2018-09-12T12:09:55.437Z,39.49
2018-09-12T12:10:55.450Z,38.51
2018-09-12T12:11:55.417Z,39.19
2018-09-12T12:12:55.405Z,39.37
2018-09-12T12:13:55.388Z,39.90
2018-09-12T12:14:55.387Z,40.00
2018-09-12T12:15:55.397Z,39.82
2018-09-12T12:16:55.357Z,40.82
2018-09-12T12:17:55.348Z,40.72
2018-09-12T12:18:55.339Z,40.66
2018-09-12T12:19:55.333Z,41.17
2018-09-12T12:20:55.345Z,41.09
2018-09-12T12:21:55.305Z,42.38
2018-09-12T12:22:55.298Z,41.78
2018-09-12T12:23:55.285Z,43.28
2018-09-12T12:24:55.271Z,42.30
2018-09-12T12:25:55.279Z,42.30
2018-09-12T12:26:55.254Z,42.41
2018-09-12T12:27:55.241Z,42.10
2018-09-12T12:28:55.245Z,43.38
2018-09-12T12:29:55.226Z,43.28
2018-09-12T12:30:55.231Z,42.30
2018-09-12T12:31:55.191Z,42.38
2018-09-12T12:32:55.188Z,42.89
2018-09-12T12:33:55.169Z,42.86
2018-09-12T12:34:55.166Z,42.20
2018-09-12T12:35:55.168Z,43.18
2018-09-12T12:36:55.148Z,42.79
2018-09-12T12:37:55.124Z,42.10
2018-09-12T12:38:55.122Z,43.40
2018-09-12T12:39:55.105Z,43.71
2018-09-12T12:40:55.125Z,44.11
2018-09-12T12:41:55.083Z,44.80
2018-09-12T12:42:55.082Z,45.41
2018-09-12T12:43:55.062Z,45.93
2018-09-12T12:44:55.048Z,46.04
2018-09-12T12:45:55.035Z,46.54
2018-09-12T12:46:55.053Z,46.96
2018-09-12T12:47:55.014Z,47.35
2018-09-12T12:48:55.006Z,47.77
2018-09-12T12:49:55.003Z,47.89
2018-09-12T12:50:54.978Z,48.51
2018-09-12T12:51:54.991Z,48.80